• Join FlightAware (Why Join?)
  • Login
  • US Flag 
09:10AM EST


 

Airport Tracker/Info


-or-


 

Live Flight TrackerFlight Track Log ✈ FLG4006 ✈ 28-Jul-2013 ✈ KDTW - KCVG

Flight Track Log - Related Links

Times and Time Zones

All times are in EDT time to prevent confusion due to time zone crossing. See the FLG4006 flight status page for this flight to view local times or setup timezone preferences in your user account.

Time Position Orientation Groundspeed Altitude Reporting Facility
EDT Latitude Longitude Course Direction KTS MPH feet Rate Location/Type
07:42PM 42.2053 -83.3722 210° Southwest 147 169 1,400  Level Cleveland Center
07:43PM 42.1461 -83.4117 206° Southwest 209 241 4,000 2,100 Climbing Cleveland Center
07:44PM 42.0889 -83.4483 205° Southwest 229 264 6,300 2,700 Climbing Cleveland Center
07:45PM 42.0292 -83.4989 212° Southwest 260 299 9,400 2,460 Climbing Cleveland Center
07:46PM 41.8838 -83.6162 217° Southwest  Level FlightAware Approximate
07:46PM 41.9611 -83.5572 213° Southwest 278 320 11,300  Level Cleveland Center
07:47PM 41.8036 -83.6825 210° Southwest  Level FlightAware Approximate
07:47PM 41.8822 -83.6233 212° Southwest 309 356 12,300  Level Cleveland Center
07:48PM 41.7219 -83.7459 210° Southwest  Level FlightAware Approximate
07:48PM 41.7947 -83.6972 212° Southwest 348 400 13,400  Level Cleveland Center
07:49PM 41.7050 -83.7678 210° Southwest 373 429 14,700 1,260 Climbing Cleveland Center
07:50PM 41.6133 -83.8439 212° Southwest 387 445 16,000 1,260 Climbing Cleveland Center
07:51PM 41.5236 -83.9142 210° Southwest 393 452 17,300 1,260 Climbing Cleveland Center
07:52PM 41.4297 -83.9897 211° Southwest 393 452 18,600 1,200 Climbing Cleveland Center
07:53PM 41.3550 -84.0467 210° Southwest 393 452 19,700 420 Climbing Cleveland Center
07:56PM 41.1306 -84.2328 212° Southwest 417 480 20,000 60 Climbing Indianapolis Center
07:57PM 41.0306 -84.3197 213° Southwest 425 489 20,000  Level Indianapolis Center
07:58PM 40.9283 -84.4053 212° Southwest 430 495 20,000  Level Indianapolis Center
07:59PM 40.8283 -84.4925 213° Southwest 429 494 20,000  Level Indianapolis Center
08:00PM 40.7269 -84.5800 213° Southwest 431 496 20,000 -120 Level Indianapolis Center
08:01PM 40.6200 -84.6589 209° Southwest 438 504 19,800 -1,020 Descending Indianapolis Center
08:02PM 40.5033 -84.7028 196° South 435 501 18,000 -1,680 Descending Indianapolis Center
08:03PM 40.3903 -84.7439 195° South 421 484 16,400 -1,740 Descending Indianapolis Center
08:03PM 40.3206 -84.7692 195° South 412 474 15,400 -1,500 Descending Indianapolis Center
08:04PM 40.2814 -84.7839 196° South 407 468 14,900 -1,440 Descending Indianapolis Center
08:04PM 40.2064 -84.8108 195° South 396 456 13,800 -1,740 Descending Indianapolis Center
08:05PM 40.1078 -84.8472 196° South 398 458 12,400 -1,380 Descending Indianapolis Center
08:06PM 40.0656 -84.8631 196° South 401 461 11,800 -1,440 Descending Indianapolis Center
08:06PM 39.9978 -84.8894 197° South 389 448 10,800 -1,380 Descending Indianapolis Center
08:07PM 39.9061 -84.8803 176° South 395 455 10,000 -540 Descending Indianapolis Center
08:08PM 39.8350 -84.8614 168° South 394 453 10,000  Level Indianapolis Center
08:09PM 39.7278 -84.8636 181° South 393 452 10,000  Level Indianapolis Center
08:10PM 39.6458 -84.9347 214° Southwest 377 434 10,000  Level Indianapolis Center
08:11PM 39.5597 -85.0089 214° Southwest 373 429 10,000 -120 Level Indianapolis Center
08:12PM 39.4744 -85.0439 198° South 324 373 9,800 -840 Descending Indianapolis Center
08:13PM 39.4067 -84.9836 145° Southeast 306 352 8,300 -1,620 Descending Indianapolis Center
08:14PM 39.3336 -84.8986 138° Southeast 297 342 6,500 -1,320 Descending Indianapolis Center
08:15PM 39.2803 -84.8344 137° Southeast 293 337 5,600 -900 Descending Indianapolis Center
08:16PM 39.2253 -84.7711 138° Southeast 273 314 4,700 -1,020 Descending Indianapolis Center
08:17PM 39.1786 -84.7122 136° Southeast 219 252 3,600 -840 Descending Indianapolis Center
08:18PM 39.1456 -84.6703 135° Southeast 210 242 3,100 -1,020 Descending Indianapolis Center
08:19PM 39.0833 -84.6667 177° South 129 148 1,300 -1,440 Descending Cincinnati TRACON